Time;durP1;ratioP1;P1;durP2;ratioP2;P2;SDS_P1;SDS_P2;PMS_P1;PMS_P2;Temp;Humidity;BMP_temperature;BMP_pressure;BME280_temperature;BME280_humidity;BME280_pressure;Samples;Min_cycle;Max_cycle;Signal;HPM_P1;HPM_P2
2021/10/22 00:01:39;;;;;;;1.09;1.02;;;;;;;19.61;62.82;100476.47;;;;-59
2021/10/22 00:04:39;;;;;;;1.08;0.98;;;;;;;19.60;62.84;100478.31;;;;-58
2021/10/22 00:07:39;;;;;;;1.35;1.04;;;;;;;19.58;62.81;100476.10;;;;-49
2021/10/22 00:10:39;;;;;;;1.01;1.00;;;;;;;19.58;62.83;100476.43;;;;-59
2021/10/22 00:13:39;;;;;;;1.41;1.00;;;;;;;19.58;62.80;100481.39;;;;-48
2021/10/22 00:16:39;;;;;;;1.01;1.00;;;;;;;19.58;62.77;100486.84;;;;-49
2021/10/22 00:19:39;;;;;;;1.05;1.03;;;;;;;19.57;62.80;100483.84;;;;-49
2021/10/22 00:22:39;;;;;;;1.53;1.13;;;;;;;19.56;62.79;100487.23;;;;-60
2021/10/22 00:25:39;;;;;;;1.00;1.00;;;;;;;19.55;62.81;100488.62;;;;-48
2021/10/22 00:28:39;;;;;;;1.20;1.10;;;;;;;19.54;62.81;100492.42;;;;-47
2021/10/22 00:31:39;;;;;;;1.27;1.17;;;;;;;19.54;62.79;100491.94;;;;-47
2021/10/22 00:34:39;;;;;;;0.93;0.93;;;;;;;19.54;62.82;100497.22;;;;-47
2021/10/22 00:37:39;;;;;;;1.00;1.00;;;;;;;19.54;62.78;100496.73;;;;-53
2021/10/22 00:40:39;;;;;;;1.33;1.10;;;;;;;19.53;62.79;100498.12;;;;-48
2021/10/22 00:43:39;;;;;;;1.16;1.11;;;;;;;19.52;62.82;100494.84;;;;-49
2021/10/22 00:46:40;;;;;;;1.37;1.13;;;;;;;19.51;62.80;100494.98;;;;-48
2021/10/22 00:49:39;;;;;;;1.20;1.10;;;;;;;19.50;62.80;100495.40;;;;-48
2021/10/22 00:52:39;;;;;;;1.03;1.03;;;;;;;19.49;62.81;100498.17;;;;-49
2021/10/22 00:55:39;;;;;;;1.00;1.00;;;;;;;19.50;62.79;100501.09;;;;-54
2021/10/22 00:58:39;;;;;;;1.05;1.03;;;;;;;19.49;62.80;100504.10;;;;-49
2021/10/22 01:01:39;;;;;;;1.19;1.10;;;;;;;19.48;62.75;100498.71;;;;-48
2021/10/22 01:04:40;;;;;;;1.15;1.09;;;;;;;19.48;62.80;100497.58;;;;-54
2021/10/22 01:07:39;;;;;;;1.03;1.03;;;;;;;19.47;62.80;100499.05;;;;-48
2021/10/22 01:10:39;;;;;;;0.90;0.90;;;;;;;19.47;62.81;100502.70;;;;-59
2021/10/22 01:13:39;;;;;;;1.31;1.03;;;;;;;19.46;62.80;100501.71;;;;-58
2021/10/22 01:16:39;;;;;;;1.11;1.00;;;;;;;19.46;62.81;100506.17;;;;-58
2021/10/22 01:19:39;;;;;;;1.61;1.06;;;;;;;19.45;62.78;100507.65;;;;-58
2021/10/22 01:22:39;;;;;;;1.33;1.01;;;;;;;19.45;62.76;100508.22;;;;-58
2021/10/22 01:25:39;;;;;;;1.07;1.07;;;;;;;19.44;62.81;100505.54;;;;-59
2021/10/22 01:28:39;;;;;;;1.00;1.00;;;;;;;19.43;62.77;100508.69;;;;-59
2021/10/22 01:31:39;;;;;;;1.30;1.20;;;;;;;19.43;62.82;100509.09;;;;-60
2021/10/22 01:34:39;;;;;;;1.27;1.10;;;;;;;19.42;62.79;100505.25;;;;-59
2021/10/22 01:37:39;;;;;;;1.16;1.10;;;;;;;19.42;62.76;100505.58;;;;-59
2021/10/22 01:40:39;;;;;;;1.16;1.06;;;;;;;19.40;62.78;100499.55;;;;-59
2021/10/22 01:43:41;;;;;;;1.20;1.09;;;;;;;19.39;62.78;100502.48;;;;-54
2021/10/22 01:46:39;;;;;;;1.23;1.11;;;;;;;19.40;62.74;100508.00;;;;-54
2021/10/22 01:49:39;;;;;;;1.19;1.09;;;;;;;19.39;62.75;100516.30;;;;-53
2021/10/22 01:52:39;;;;;;;1.01;1.01;;;;;;;19.39;62.75;100516.38;;;;-54
2021/10/22 01:55:39;;;;;;;1.20;1.10;;;;;;;19.38;62.72;100519.04;;;;-54
2021/10/22 01:58:39;;;;;;;1.24;1.14;;;;;;;19.37;62.76;100517.73;;;;-54
2021/10/22 02:01:39;;;;;;;1.36;1.20;;;;;;;19.37;62.77;100522.70;;;;-52
2021/10/22 02:04:39;;;;;;;1.12;1.00;;;;;;;19.36;62.74;100525.80;;;;-53
2021/10/22 02:07:39;;;;;;;1.31;1.21;;;;;;;19.35;62.76;100527.16;;;;-53
2021/10/22 02:10:39;;;;;;;1.31;1.10;;;;;;;19.34;62.75;100530.08;;;;-53
2021/10/22 02:13:39;;;;;;;1.30;1.20;;;;;;;19.34;62.75;100529.52;;;;-54
2021/10/22 02:16:39;;;;;;;1.10;1.05;;;;;;;19.33;62.73;100531.20;;;;-58
2021/10/22 02:19:39;;;;;;;1.22;1.12;;;;;;;19.32;62.75;100530.39;;;;-59
2021/10/22 02:22:39;;;;;;;1.15;1.09;;;;;;;19.32;62.71;100532.18;;;;-48
2021/10/22 02:25:39;;;;;;;1.12;1.03;;;;;;;19.31;62.73;100524.68;;;;-49
2021/10/22 02:28:39;;;;;;;1.21;1.11;;;;;;;19.30;62.73;100528.51;;;;-48
2021/10/22 02:31:39;;;;;;;1.23;1.13;;;;;;;19.29;62.68;100531.89;;;;-48
2021/10/22 02:34:39;;;;;;;1.09;1.09;;;;;;;19.29;62.67;100537.58;;;;-59
2021/10/22 02:37:42;;;;;;;1.29;1.10;;;;;;;19.29;62.69;100540.27;;;;-58
2021/10/22 02:40:39;;;;;;;1.30;1.20;;;;;;;19.28;62.61;100544.66;;;;-59
2021/10/22 02:43:39;;;;;;;1.16;1.06;;;;;;;19.28;62.69;100547.50;;;;-58
2021/10/22 02:46:39;;;;;;;1.07;1.07;;;;;;;19.27;62.67;100547.73;;;;-59
2021/10/22 02:49:39;;;;;;;1.28;1.18;;;;;;;19.27;62.67;100547.23;;;;-58
2021/10/22 02:52:39;;;;;;;1.17;1.07;;;;;;;19.26;62.67;100548.54;;;;-58
2021/10/22 02:55:39;;;;;;;1.23;1.13;;;;;;;19.26;62.62;100553.50;;;;-58
2021/10/22 02:58:39;;;;;;;1.20;1.10;;;;;;;19.25;62.57;100551.84;;;;-58
2021/10/22 03:01:39;;;;;;;0.95;0.95;;;;;;;19.24;62.65;100551.20;;;;-47
2021/10/22 03:04:39;;;;;;;1.38;1.28;;;;;;;19.23;62.67;100547.92;;;;-59
2021/10/22 03:07:39;;;;;;;1.11;1.01;;;;;;;19.23;62.61;100549.39;;;;-59
2021/10/22 03:10:39;;;;;;;1.33;1.21;;;;;;;19.23;62.53;100553.30;;;;-59
2021/10/22 03:13:39;;;;;;;1.02;1.02;;;;;;;19.23;62.58;100554.03;;;;-59
2021/10/22 03:16:42;;;;;;;1.50;1.18;;;;;;;19.23;62.56;100560.69;;;;-59
2021/10/22 03:19:39;;;;;;;1.07;1.07;;;;;;;19.23;62.60;100557.36;;;;-58
2021/10/22 03:22:39;;;;;;;1.26;1.16;;;;;;;19.22;62.54;100552.73;;;;-58
2021/10/22 03:25:39;;;;;;;1.13;1.10;;;;;;;19.22;62.51;100552.48;;;;-59
2021/10/22 03:28:39;;;;;;;1.21;1.14;;;;;;;19.21;62.52;100560.27;;;;-54
2021/10/22 03:31:39;;;;;;;1.14;1.10;;;;;;;19.20;62.49;100565.14;;;;-53
2021/10/22 03:34:40;;;;;;;1.27;1.17;;;;;;;19.20;62.53;100568.72;;;;-54
2021/10/22 03:37:39;;;;;;;1.20;1.10;;;;;;;19.20;62.46;100569.05;;;;-53
2021/10/22 03:40:39;;;;;;;1.23;1.13;;;;;;;19.19;62.45;100566.09;;;;-53
2021/10/22 03:43:39;;;;;;;1.10;1.10;;;;;;;19.19;62.44;100571.94;;;;-54
2021/10/22 03:46:39;;;;;;;1.22;1.12;;;;;;;19.18;62.45;100573.73;;;;-54
2021/10/22 03:49:39;;;;;;;1.30;1.20;;;;;;;19.18;62.45;100577.80;;;;-53
2021/10/22 03:52:39;;;;;;;1.29;1.20;;;;;;;19.16;62.42;100579.80;;;;-54
2021/10/22 03:55:39;;;;;;;1.14;1.12;;;;;;;19.17;62.35;100576.31;;;;-52
2021/10/22 03:58:39;;;;;;;1.31;1.21;;;;;;;19.16;62.41;100579.97;;;;-52
2021/10/22 04:01:39;;;;;;;1.09;1.08;;;;;;;19.16;62.42;100575.42;;;;-48
2021/10/22 04:04:39;;;;;;;1.10;1.10;;;;;;;19.16;62.46;100582.24;;;;-48
2021/10/22 04:07:39;;;;;;;1.19;1.10;;;;;;;19.14;62.46;100583.20;;;;-48
2021/10/22 04:10:41;;;;;;;1.10;1.10;;;;;;;19.15;62.43;100591.02;;;;-48
2021/10/22 04:13:39;;;;;;;1.12;1.11;;;;;;;19.14;62.42;100596.92;;;;-49
2021/10/22 04:16:39;;;;;;;1.19;1.09;;;;;;;19.14;62.39;100593.59;;;;-48
2021/10/22 04:19:41;;;;;;;1.31;1.21;;;;;;;19.14;62.37;100589.30;;;;-48
2021/10/22 04:22:39;;;;;;;1.20;1.10;;;;;;;19.13;62.32;100586.34;;;;-48
2021/10/22 04:25:39;;;;;;;1.27;1.17;;;;;;;19.13;62.32;100584.80;;;;-53
2021/10/22 04:28:39;;;;;;;1.29;1.20;;;;;;;19.12;62.35;100593.73;;;;-53
2021/10/22 04:31:39;;;;;;;1.31;1.21;;;;;;;19.12;62.36;100596.83;;;;-47
2021/10/22 04:34:39;;;;;;;1.29;1.19;;;;;;;19.12;62.37;100601.62;;;;-47
2021/10/22 04:37:50;;;;;;;1.30;1.20;;;;;;;19.11;62.40;100600.73;;;;-47
2021/10/22 04:40:40;;;;;;;1.32;1.13;;;;;;;19.13;62.43;100599.42;;;;-49
2021/10/22 04:43:39;;;;;;;1.30;1.20;;;;;;;19.13;62.43;100600.88;;;;-48
2021/10/22 04:46:39;;;;;;;1.12;1.06;;;;;;;19.13;62.51;100599.83;;;;-49
2021/10/22 04:49:39;;;;;;;1.23;1.15;;;;;;;19.14;62.50;100603.99;;;;-48
2021/10/22 04:52:39;;;;;;;1.22;1.12;;;;;;;19.15;62.50;100605.97;;;;-48
2021/10/22 04:55:40;;;;;;;1.22;1.12;;;;;;;19.17;62.58;100609.78;;;;-48
2021/10/22 04:58:40;;;;;;;1.05;1.05;;;;;;;19.19;62.52;100613.70;;;;-53
2021/10/22 05:01:39;;;;;;;1.34;1.21;;;;;;;19.22;62.55;100618.22;;;;-54
2021/10/22 05:04:39;;;;;;;1.15;1.10;;;;;;;19.23;62.59;100621.30;;;;-54
2021/10/22 05:07:39;;;;;;;1.30;1.20;;;;;;;19.26;62.62;100621.80;;;;-47
2021/10/22 05:10:39;;;;;;;1.19;1.09;;;;;;;19.27;62.61;100626.45;;;;-47
2021/10/22 05:13:39;;;;;;;1.18;1.11;;;;;;;19.29;62.63;100619.57;;;;-47
2021/10/22 05:16:40;;;;;;;1.11;1.10;;;;;;;19.32;62.64;100622.54;;;;-54
2021/10/22 05:19:39;;;;;;;1.00;1.00;;;;;;;19.34;62.57;100618.47;;;;-53
2021/10/22 05:22:39;;;;;;;1.19;1.09;;;;;;;19.35;62.60;100618.98;;;;-54
2021/10/22 05:25:39;;;;;;;3.77;2.16;;;;;;;18.99;54.87;100624.88;;;;-55
2021/10/22 05:28:39;;;;;;;2.67;2.20;;;;;;;18.70;52.94;100620.54;;;;-58
2021/10/22 05:31:39;;;;;;;2.75;1.96;;;;;;;18.45;51.55;100620.52;;;;-56
2021/10/22 05:34:39;;;;;;;2.38;2.18;;;;;;;18.38;52.70;100614.36;;;;-59
2021/10/22 05:37:39;;;;;;;4.47;2.15;;;;;;;18.56;54.14;100620.20;;;;-57
2021/10/22 05:40:39;;;;;;;3.10;2.00;;;;;;;18.68;55.02;100622.38;;;;-49
2021/10/22 05:43:39;;;;;;;2.06;1.86;;;;;;;18.77;55.82;100621.99;;;;-48
2021/10/22 05:46:39;;;;;;;2.40;1.72;;;;;;;18.84;56.60;100626.67;;;;-48
2021/10/22 05:49:39;;;;;;;2.08;1.80;;;;;;;18.88;57.25;100623.28;;;;-56
2021/10/22 05:52:39;;;;;;;1.87;1.57;;;;;;;18.92;57.72;100624.87;;;;-55
2021/10/22 05:55:39;;;;;;;2.02;1.70;;;;;;;18.95;58.06;100624.19;;;;-56
2021/10/22 05:58:39;;;;;;;1.89;1.60;;;;;;;18.97;58.30;100631.68;;;;-55
2021/10/22 06:01:39;;;;;;;2.59;1.60;;;;;;;18.98;58.51;100635.17;;;;-56
2021/10/22 06:04:39;;;;;;;2.70;1.61;;;;;;;19.01;58.67;100641.15;;;;-49
2021/10/22 06:07:39;;;;;;;2.63;1.60;;;;;;;19.02;58.84;100650.56;;;;-49
2021/10/22 06:10:39;;;;;;;1.67;1.48;;;;;;;19.03;58.96;100651.41;;;;-49
2021/10/22 06:13:39;;;;;;;1.99;1.50;;;;;;;19.04;59.08;100654.33;;;;-48
2021/10/22 06:16:39;;;;;;;2.05;1.53;;;;;;;19.04;59.19;100650.34;;;;-49
2021/10/22 06:19:40;;;;;;;1.71;1.43;;;;;;;19.04;59.24;100656.59;;;;-49
2021/10/22 06:22:52;;;;;;;1.94;1.59;;;;;;;19.05;59.35;100661.72;;;;-49
2021/10/22 06:25:39;;;;;;;1.83;1.57;;;;;;;19.06;59.44;100666.62;;;;-49
2021/10/22 06:28:39;;;;;;;1.58;1.48;;;;;;;19.06;59.50;100669.62;;;;-49
2021/10/22 06:31:40;;;;;;;1.58;1.40;;;;;;;19.06;59.59;100672.62;;;;-49
2021/10/22 06:34:39;;;;;;;1.63;1.50;;;;;;;19.06;59.66;100676.12;;;;-49
2021/10/22 06:37:39;;;;;;;1.61;1.42;;;;;;;19.07;59.73;100686.11;;;;-50
2021/10/22 06:40:39;;;;;;;2.53;1.61;;;;;;;19.07;59.79;100691.50;;;;-58
2021/10/22 06:43:39;;;;;;;1.31;1.21;;;;;;;19.08;59.81;100700.11;;;;-59
2021/10/22 06:46:39;;;;;;;1.77;1.54;;;;;;;19.07;59.89;100703.03;;;;-59
2021/10/22 06:49:39;;;;;;;2.01;1.43;;;;;;;19.07;59.94;100702.14;;;;-58
2021/10/22 06:52:40;;;;;;;1.53;1.43;;;;;;;19.08;59.95;100710.09;;;;-58
2021/10/22 06:55:39;;;;;;;2.28;1.41;;;;;;;19.08;59.96;100712.78;;;;-59
2021/10/22 06:58:39;;;;;;;1.57;1.47;;;;;;;19.08;60.04;100720.82;;;;-59
2021/10/22 07:01:39;;;;;;;2.00;1.55;;;;;;;19.09;60.07;100722.69;;;;-58
2021/10/22 07:04:47;;;;;;;2.26;1.59;;;;;;;19.08;60.11;100731.14;;;;-59
2021/10/22 07:07:39;;;;;;;2.86;1.55;;;;;;;19.08;60.07;100733.09;;;;-59
2021/10/22 07:10:39;;;;;;;1.41;1.31;;;;;;;19.08;60.12;100739.59;;;;-58
2021/10/22 07:13:39;;;;;;;1.64;1.51;;;;;;;19.08;60.13;100743.16;;;;-59
2021/10/22 07:16:42;;;;;;;2.00;1.53;;;;;;;19.07;60.17;100746.49;;;;-49
2021/10/22 07:19:39;;;;;;;1.45;1.35;;;;;;;19.07;60.15;100751.53;;;;-49
2021/10/22 07:22:47;;;;;;;2.62;1.50;;;;;;;19.07;60.21;100756.97;;;;-49
2021/10/22 07:25:39;;;;;;;1.46;1.36;;;;;;;19.08;60.24;100764.69;;;;-49
2021/10/22 07:28:39;;;;;;;1.71;1.53;;;;;;;19.07;60.24;100768.39;;;;-49
2021/10/22 07:31:39;;;;;;;1.60;1.50;;;;;;;19.07;60.26;100774.27;;;;-49
2021/10/22 07:34:39;;;;;;;1.82;1.42;;;;;;;19.07;60.27;100778.14;;;;-49
2021/10/22 07:37:39;;;;;;;1.87;1.49;;;;;;;19.06;60.32;100779.12;;;;-48
2021/10/22 07:40:39;;;;;;;2.07;1.51;;;;;;;19.07;60.32;100786.18;;;;-48
2021/10/22 07:43:39;;;;;;;2.27;1.59;;;;;;;19.07;60.36;100785.89;;;;-48
2021/10/22 07:46:39;;;;;;;1.61;1.51;;;;;;;19.07;60.41;100796.28;;;;-48
2021/10/22 07:49:39;;;;;;;1.59;1.43;;;;;;;19.06;60.42;100800.23;;;;-48
2021/10/22 07:52:39;;;;;;;1.57;1.40;;;;;;;19.06;60.48;100807.70;;;;-48
2021/10/22 07:55:39;;;;;;;1.98;1.60;;;;;;;19.06;60.49;100816.23;;;;-48
2021/10/22 07:58:39;;;;;;;2.35;1.50;;;;;;;19.06;60.46;100816.56;;;;-48
2021/10/22 08:01:39;;;;;;;1.71;1.49;;;;;;;19.06;60.49;100812.83;;;;-48
2021/10/22 08:04:39;;;;;;;1.40;1.30;;;;;;;19.05;60.44;100810.15;;;;-48
2021/10/22 08:07:41;;;;;;;2.79;1.67;;;;;;;19.06;60.62;100815.91;;;;-47
2021/10/22 08:10:40;;;;;;;3.74;1.58;;;;;;;19.08;60.81;100819.92;;;;-45
2021/10/22 08:13:39;;;;;;;4.94;2.10;;;;;;;19.10;60.91;100816.95;;;;-48
2021/10/22 08:16:39;;;;;;;4.49;1.92;;;;;;;19.12;60.30;100820.06;;;;-50
2021/10/22 08:19:39;;;;;;;5.41;1.64;;;;;;;19.17;60.73;100820.84;;;;-56
2021/10/22 08:22:39;;;;;;;3.07;1.73;;;;;;;19.19;60.86;100819.25;;;;-50
2021/10/22 08:25:39;;;;;;;3.40;1.79;;;;;;;19.23;60.74;100820.44;;;;-50
2021/10/22 08:28:39;;;;;;;3.61;1.60;;;;;;;19.27;60.77;100822.61;;;;-51
2021/10/22 08:31:39;;;;;;;4.20;1.65;;;;;;;19.32;60.95;100828.19;;;;-48
2021/10/22 08:34:39;;;;;;;3.05;1.77;;;;;;;19.36;61.13;100828.59;;;;-52
2021/10/22 08:37:39;;;;;;;6.01;1.56;;;;;;;19.40;60.68;100830.16;;;;-51
2021/10/22 08:40:39;;;;;;;2.67;1.62;;;;;;;19.45;60.71;100830.56;;;;-51
2021/10/22 08:43:40;;;;;;;2.44;1.63;;;;;;;19.49;60.76;100836.47;;;;-51
2021/10/22 08:46:39;;;;;;;2.18;1.57;;;;;;;19.53;60.82;100836.36;;;;-46
2021/10/22 08:49:39;;;;;;;2.08;1.61;;;;;;;19.58;60.24;100839.17;;;;-49
2021/10/22 08:52:39;;;;;;;3.57;2.09;;;;;;;19.61;60.75;100836.38;;;;-50
2021/10/22 08:55:39;;;;;;;2.76;1.97;;;;;;;19.66;60.69;100836.42;;;;-48
2021/10/22 08:58:39;;;;;;;12.19;4.69;;;;;;;19.71;60.52;100834.47;;;;-48
2021/10/22 09:01:39;;;;;;;3.86;1.85;;;;;;;19.78;60.98;100837.00;;;;-49
2021/10/22 09:04:39;;;;;;;3.93;1.78;;;;;;;19.81;60.89;100829.94;;;;-54
2021/10/22 09:07:39;;;;;;;4.17;1.75;;;;;;;19.86;60.98;100830.34;;;;-53
2021/10/22 09:10:39;;;;;;;3.57;1.67;;;;;;;19.91;60.79;100829.57;;;;-55
2021/10/22 09:13:39;;;;;;;2.16;1.60;;;;;;;19.94;60.71;100831.38;;;;-54
2021/10/22 09:16:39;;;;;;;2.21;1.52;;;;;;;19.97;60.68;100838.66;;;;-55
2021/10/22 09:19:41;;;;;;;2.73;1.63;;;;;;;20.00;60.67;100832.74;;;;-55
2021/10/22 09:22:39;;;;;;;2.49;1.55;;;;;;;20.03;60.63;100831.89;;;;-54
2021/10/22 09:25:40;;;;;;;3.62;1.59;;;;;;;20.04;60.62;100828.80;;;;-56
2021/10/22 09:28:39;;;;;;;3.59;1.59;;;;;;;20.07;60.70;100826.08;;;;-54
2021/10/22 09:31:39;;;;;;;2.82;1.51;;;;;;;20.08;60.70;100830.05;;;;-54
2021/10/22 09:34:39;;;;;;;1.91;1.41;;;;;;;20.11;60.64;100835.94;;;;-54
2021/10/22 09:37:41;;;;;;;4.29;1.72;;;;;;;20.14;60.54;100833.54;;;;-49
2021/10/22 09:40:39;;;;;;;4.77;1.78;;;;;;;20.14;59.20;100841.67;;;;-50
2021/10/22 09:43:39;;;;;;;8.37;1.97;;;;;;;20.16;59.56;100837.95;;;;-51
2021/10/22 09:46:39;;;;;;;5.88;1.75;;;;;;;20.19;59.66;100843.86;;;;-46
2021/10/22 09:49:39;;;;;;;6.10;1.89;;;;;;;20.21;59.96;100841.81;;;;-46
2021/10/22 09:52:39;;;;;;;3.80;1.65;;;;;;;20.22;59.97;100843.70;;;;-46
2021/10/22 09:55:39;;;;;;;3.15;1.70;;;;;;;20.23;59.96;100846.50;;;;-49
2021/10/22 09:58:39;;;;;;;2.47;1.79;;;;;;;20.25;60.21;100846.03;;;;-53
2021/10/22 10:01:39;;;;;;;2.65;1.68;;;;;;;20.29;60.47;100851.08;;;;-52
2021/10/22 10:04:39;;;;;;;7.94;1.74;;;;;;;20.32;60.51;100857.39;;;;-52
2021/10/22 10:07:39;;;;;;;2.97;1.80;;;;;;;20.35;60.56;100859.20;;;;-51
2021/10/22 10:10:39;;;;;;;3.38;1.65;;;;;;;20.38;60.75;100865.27;;;;-50
2021/10/22 10:13:39;;;;;;;3.72;1.79;;;;;;;20.41;60.80;100870.48;;;;-56
2021/10/22 10:16:39;;;;;;;4.35;1.59;;;;;;;20.44;60.77;100868.66;;;;-60
2021/10/22 10:19:39;;;;;;;4.03;1.85;;;;;;;20.47;60.73;100870.55;;;;-60
2021/10/22 10:22:42;;;;;;;1.87;1.60;;;;;;;20.50;60.48;100873.03;;;;-50
2021/10/22 10:25:39;;;;;;;2.55;1.55;;;;;;;20.50;60.32;100870.75;;;;-51
2021/10/22 10:28:39;;;;;;;5.02;1.70;;;;;;;20.51;60.34;100863.17;;;;-50
2021/10/22 10:31:39;;;;;;;2.04;1.51;;;;;;;20.51;60.27;100864.72;;;;-51
2021/10/22 10:34:39;;;;;;;3.01;1.67;;;;;;;20.52;60.29;100857.30;;;;-59
2021/10/22 10:37:39;;;;;;;1.78;1.45;;;;;;;20.53;60.27;100852.36;;;;-48
2021/10/22 10:40:39;;;;;;;2.96;1.74;;;;;;;20.54;60.32;100857.00;;;;-46
2021/10/22 10:43:39;;;;;;;3.63;1.57;;;;;;;20.55;60.29;100855.72;;;;-51
2021/10/22 10:46:39;;;;;;;2.41;1.60;;;;;;;20.56;60.31;100860.84;;;;-46
2021/10/22 10:49:39;;;;;;;2.79;1.56;;;;;;;20.57;60.23;100863.72;;;;-56
2021/10/22 10:52:39;;;;;;;2.04;1.63;;;;;;;20.58;60.28;100860.00;;;;-46
2021/10/22 10:55:39;;;;;;;2.71;1.69;;;;;;;20.59;60.26;100854.48;;;;-46
2021/10/22 10:58:39;;;;;;;3.00;1.55;;;;;;;20.61;60.24;100851.78;;;;-51
2021/10/22 11:01:39;;;;;;;3.79;1.54;;;;;;;20.62;60.24;100852.95;;;;-50
2021/10/22 11:04:39;;;;;;;2.37;1.50;;;;;;;20.64;60.24;100852.47;;;;-50
2021/10/22 11:07:40;;;;;;;1.57;1.45;;;;;;;20.65;60.30;100850.46;;;;-51
2021/10/22 11:10:39;;;;;;;2.83;1.50;;;;;;;20.65;60.24;100846.95;;;;-51
2021/10/22 11:13:39;;;;;;;1.60;1.47;;;;;;;20.67;60.26;100840.87;;;;-51
2021/10/22 11:16:41;;;;;;;1.63;1.51;;;;;;;20.67;60.27;100835.33;;;;-51
2021/10/22 11:19:39;;;;;;;2.06;1.59;;;;;;;20.68;60.32;100830.92;;;;-51
2021/10/22 11:22:39;;;;;;;2.79;1.49;;;;;;;20.69;60.24;100835.19;;;;-51
2021/10/22 11:25:39;;;;;;;1.57;1.45;;;;;;;20.71;60.25;100839.92;;;;-51
2021/10/22 11:28:39;;;;;;;1.79;1.61;;;;;;;20.71;60.23;100842.66;;;;-51
2021/10/22 11:31:41;;;;;;;1.74;1.60;;;;;;;20.72;60.24;100837.47;;;;-51
2021/10/22 11:34:39;;;;;;;2.10;1.50;;;;;;;20.72;60.22;100838.69;;;;-48
2021/10/22 11:37:40;;;;;;;2.84;1.57;;;;;;;20.74;60.31;100838.71;;;;-51
2021/10/22 11:40:41;;;;;;;2.46;1.60;;;;;;;20.74;60.22;100839.19;;;;-51
2021/10/22 11:43:40;;;;;;;2.12;1.79;;;;;;;20.76;60.02;100838.80;;;;-51
2021/10/22 11:46:38;;;;;;;3.57;2.00;;;;;;;20.77;59.76;100836.52;;;;-59
2021/10/22 11:49:39;;;;;;;3.24;2.03;;;;;;;20.79;59.01;100837.02;;;;-59
2021/10/22 11:52:39;;;;;;;4.63;2.21;;;;;;;20.79;59.04;100835.72;;;;-51
2021/10/22 11:55:39;;;;;;;5.13;2.58;;;;;;;20.81;59.21;100834.84;;;;-51
2021/10/22 11:58:39;;;;;;;5.02;2.30;;;;;;;20.84;59.85;100834.39;;;;-54
2021/10/22 12:01:40;;;;;;;4.47;2.23;;;;;;;20.84;59.72;100835.36;;;;-55
2021/10/22 12:04:39;;;;;;;6.53;2.14;;;;;;;20.85;59.75;100833.07;;;;-51
2021/10/22 12:07:39;;;;;;;3.69;2.00;;;;;;;20.85;59.74;100829.08;;;;-52
2021/10/22 12:10:39;;;;;;;2.56;1.90;;;;;;;20.87;59.83;100829.99;;;;-54
2021/10/22 12:13:43;;;;;;;3.61;1.89;;;;;;;20.87;59.81;100829.91;;;;-51
2021/10/22 12:16:39;;;;;;;3.30;1.99;;;;;;;20.88;59.77;100834.17;;;;-51
2021/10/22 12:19:39;;;;;;;2.85;1.84;;;;;;;20.88;59.84;100821.62;;;;-60
2021/10/22 12:22:39;;;;;;;3.58;1.86;;;;;;;20.89;59.86;100818.77;;;;-50
2021/10/22 12:25:39;;;;;;;2.35;1.85;;;;;;;20.89;59.85;100814.27;;;;-51
2021/10/22 12:28:38;;;;;;;2.41;1.74;;;;;;;20.90;59.88;100805.02;;;;-50
2021/10/22 12:31:39;;;;;;;2.81;1.88;;;;;;;20.91;59.86;100808.18;;;;-52
2021/10/22 12:34:38;;;;;;;2.69;1.89;;;;;;;20.92;59.84;100802.42;;;;-54
2021/10/22 12:37:39;;;;;;;2.92;1.70;;;;;;;20.92;59.90;100801.19;;;;-56
2021/10/22 12:40:40;;;;;;;2.67;1.88;;;;;;;20.91;59.70;100805.57;;;;-53
2021/10/22 12:43:39;;;;;;;5.79;2.20;;;;;;;20.88;57.88;100801.02;;;;-52
2021/10/22 12:46:39;;;;;;;4.71;2.62;;;;;;;20.87;57.90;100806.94;;;;-57
2021/10/22 12:49:39;;;;;;;3.88;2.44;;;;;;;20.86;57.52;100808.33;;;;-53
2021/10/22 12:52:40;;;;;;;3.27;2.08;;;;;;;20.88;57.40;100811.60;;;;-51
2021/10/22 12:55:39;;;;;;;3.04;2.14;;;;;;;20.88;57.73;100819.50;;;;-51
2021/10/22 12:58:40;;;;;;;4.25;2.27;;;;;;;20.88;57.97;100824.14;;;;-52
2021/10/22 13:01:40;;;;;;;5.28;2.13;;;;;;;20.88;58.11;100827.81;;;;-54
2021/10/22 13:04:39;;;;;;;3.99;2.07;;;;;;;20.86;57.48;100828.61;;;;-52
2021/10/22 13:07:47;;;;;;;5.62;2.51;;;;;;;20.84;56.76;100837.80;;;;-51
2021/10/22 13:10:50;;;;;;;5.30;2.33;;;;;;;20.83;55.94;100835.50;;;;-51
2021/10/22 13:13:59;;;;;;;3.46;2.21;;;;;;;20.79;56.11;100826.70;;;;-51
2021/10/22 13:22:39;;;;;;;6.11;2.48;;;;;;;20.85;57.71;100825.01;;;;-58
2021/10/22 13:25:40;;;;;;;7.41;2.42;;;;;;;20.87;57.98;100830.39;;;;-54
2021/10/22 13:28:39;;;;;;;5.50;2.48;;;;;;;20.89;57.96;100828.94;;;;-51
2021/10/22 13:31:45;;;;;;;4.55;2.22;;;;;;;20.89;58.17;100827.16;;;;-50
2021/10/22 13:34:39;;;;;;;4.37;2.15;;;;;;;20.89;58.30;100823.24;;;;-51
2021/10/22 13:37:39;;;;;;;5.87;2.26;;;;;;;20.89;58.37;100831.14;;;;-50
2021/10/22 13:40:40;;;;;;;4.53;1.99;;;;;;;20.89;58.43;100826.66;;;;-50
2021/10/22 13:43:39;;;;;;;4.19;2.20;;;;;;;20.88;58.45;100827.16;;;;-51
2021/10/22 13:46:39;;;;;;;5.23;2.11;;;;;;;20.89;58.55;100821.38;;;;-50
2021/10/22 13:49:38;;;;;;;3.76;2.25;;;;;;;20.88;58.63;100823.41;;;;-50
2021/10/22 13:52:39;;;;;;;4.81;2.21;;;;;;;20.86;58.62;100814.69;;;;-50
2021/10/22 13:55:39;;;;;;;2.38;1.95;;;;;;;20.87;58.69;100813.21;;;;-51
2021/10/22 13:58:39;;;;;;;3.21;1.99;;;;;;;20.86;58.72;100816.14;;;;-51
2021/10/22 14:01:39;;;;;;;3.75;2.00;;;;;;;20.86;58.79;100815.02;;;;-57
2021/10/22 14:04:39;;;;;;;2.81;2.01;;;;;;;20.85;58.81;100809.04;;;;-51
2021/10/22 14:07:39;;;;;;;2.39;1.98;;;;;;;20.84;58.84;100807.17;;;;-50
2021/10/22 14:10:43;;;;;;;5.01;2.10;;;;;;;20.84;58.87;100810.19;;;;-51
2021/10/22 14:13:42;;;;;;;2.67;1.99;;;;;;;20.83;58.89;100815.54;;;;-60
2021/10/22 14:16:54;;;;;;;2.69;2.11;;;;;;;20.83;58.91;100823.20;;;;-50
2021/10/22 14:23:15;;;;;;;2.51;1.91;;;;;;;20.82;58.98;100821.82;;;;-50
2021/10/22 14:24:48;;;;;;;2.82;1.82;;;;;;;20.81;59.04;100830.52;;;;-58
2021/10/22 14:30:38;;;;;;;3.80;1.95;;;;;;;20.80;59.05;100841.12;;;;-58
2021/10/22 14:33:39;;;;;;;2.47;1.97;;;;;;;20.79;59.12;100838.98;;;;-58
2021/10/22 14:36:41;;;;;;;3.27;1.91;;;;;;;20.79;59.08;100839.22;;;;-57
2021/10/22 14:39:39;;;;;;;2.36;1.91;;;;;;;20.78;59.11;100836.63;;;;-58
2021/10/22 14:42:39;;;;;;;14.46;2.10;;;;;;;20.78;59.64;100844.44;;;;-53
2021/10/22 14:45:45;;;;;;;4.85;2.18;;;;;;;20.78;59.49;100847.86;;;;-51
2021/10/22 14:48:42;;;;;;;3.18;1.79;;;;;;;20.78;59.63;100854.78;;;;-53
2021/10/22 14:51:56;;;;;;;4.78;1.88;;;;;;;20.79;59.70;100858.84;;;;-50
2021/10/22 14:54:42;;;;;;;2.01;1.79;;;;;;;20.80;59.90;100860.02;;;;-50
2021/10/22 14:57:39;;;;;;;2.45;1.94;;;;;;;20.81;60.27;100863.83;;;;-58
2021/10/22 15:00:38;;;;;;;3.45;1.90;;;;;;;20.82;60.29;100857.83;;;;-49
2021/10/22 15:03:40;;;;;;;2.72;1.79;;;;;;;20.83;60.19;100864.58;;;;-46
2021/10/22 15:06:39;;;;;;;3.60;1.89;;;;;;;20.84;60.43;100863.47;;;;-50
2021/10/22 15:09:39;;;;;;;3.05;1.96;;;;;;;20.85;60.56;100870.06;;;;-53
2021/10/22 15:12:44;;;;;;;2.99;1.80;;;;;;;20.86;60.75;100878.47;;;;-49
2021/10/22 15:15:39;;;;;;;2.89;1.76;;;;;;;20.88;60.70;100885.57;;;;-47
2021/10/22 15:18:39;;;;;;;3.35;1.88;;;;;;;20.89;60.92;100884.83;;;;-54
2021/10/22 15:21:39;;;;;;;3.04;2.02;;;;;;;20.91;60.69;100886.80;;;;-47
2021/10/22 15:24:39;;;;;;;4.15;1.77;;;;;;;20.92;60.79;100885.93;;;;-60
2021/10/22 15:27:39;;;;;;;3.79;1.80;;;;;;;20.92;60.91;100886.42;;;;-56
2021/10/22 15:30:39;;;;;;;2.56;1.70;;;;;;;20.93;60.99;100890.08;;;;-48
2021/10/22 15:33:39;;;;;;;2.62;1.78;;;;;;;20.94;61.03;100893.17;;;;-52
2021/10/22 15:36:39;;;;;;;2.39;1.69;;;;;;;20.94;61.09;100898.09;;;;-48
2021/10/22 15:39:39;;;;;;;1.83;1.52;;;;;;;20.94;61.23;100904.03;;;;-52
2021/10/22 15:42:39;;;;;;;3.01;1.71;;;;;;;20.95;61.03;100904.27;;;;-52
2021/10/22 15:45:38;;;;;;;2.07;1.73;;;;;;;20.95;61.09;100906.23;;;;-48
2021/10/22 15:48:38;;;;;;;2.65;1.67;;;;;;;20.96;61.18;100899.65;;;;-56
2021/10/22 15:51:39;;;;;;;2.16;1.71;;;;;;;20.96;61.09;100905.44;;;;-46
2021/10/22 15:54:39;;;;;;;1.88;1.60;;;;;;;20.96;61.43;100909.99;;;;-49
2021/10/22 15:57:39;;;;;;;2.45;1.71;;;;;;;20.98;61.42;100906.83;;;;-57
2021/10/22 16:00:40;;;;;;;2.77;1.63;;;;;;;20.99;61.37;100903.81;;;;-50
2021/10/22 16:03:42;;;;;;;1.99;1.69;;;;;;;20.99;61.29;100900.95;;;;-59
2021/10/22 16:06:46;;;;;;;2.93;1.67;;;;;;;21.00;61.33;100905.27;;;;-52
2021/10/22 16:09:59;;;;;;;2.31;1.90;;;;;;;21.00;61.31;100906.36;;;;-48
2021/10/22 16:12:42;;;;;;;1.95;1.60;;;;;;;21.01;61.29;100909.45;;;;-52
2021/10/22 16:15:48;;;;;;;3.05;1.89;;;;;;;21.01;61.22;100908.39;;;;-50
2021/10/22 16:18:38;;;;;;;2.00;1.60;;;;;;;21.02;61.22;100912.38;;;;-51
2021/10/22 16:21:39;;;;;;;1.99;1.59;;;;;;;21.03;61.19;100913.53;;;;-52
2021/10/22 16:24:39;;;;;;;2.27;1.60;;;;;;;21.02;61.02;100910.20;;;;-61
2021/10/22 16:27:39;;;;;;;2.75;1.69;;;;;;;21.04;61.09;100918.91;;;;-51
2021/10/22 16:30:39;;;;;;;2.97;1.60;;;;;;;21.04;60.91;100917.69;;;;-52
2021/10/22 16:36:39;;;;;;;2.04;1.56;;;;;;;21.05;60.90;100922.84;;;;-47
2021/10/22 16:39:39;;;;;;;2.61;1.70;;;;;;;21.05;60.82;100916.98;;;;-50
2021/10/22 16:42:40;;;;;;;2.70;1.60;;;;;;;21.04;60.81;100917.28;;;;-48
2021/10/22 16:45:39;;;;;;;1.68;1.51;;;;;;;21.04;60.83;100918.04;;;;-60
2021/10/22 16:48:39;;;;;;;1.57;1.47;;;;;;;21.05;60.80;100924.88;;;;-51
2021/10/22 16:51:38;;;;;;;2.47;1.86;;;;;;;21.04;60.60;100922.93;;;;-59
2021/10/22 16:54:39;;;;;;;3.32;1.57;;;;;;;21.04;60.64;100928.96;;;;-44
2021/10/22 16:57:39;;;;;;;5.51;1.61;;;;;;;21.06;60.73;100930.34;;;;-44